Time;durP1;ratioP1;P1;durP2;ratioP2;P2;SDS_P1;SDS_P2;PMS_P1;PMS_P2;Temp;Humidity;BMP_temperature;BMP_pressure;BME280_temperature;BME280_humidity;BME280_pressure;Samples;Min_cycle;Max_cycle;Signal;HPM_P1;HPM_P2
2021/05/31 00:00:23;;;;;;;;;;;;;;;;;;1478658;40;7027;-64
2021/05/31 00:01:26;;;;;;;;;;;;;;;;;;1478668;40;7915;-64
2021/05/31 00:02:28;;;;;;;;;;;;;;;;;;1478604;40;7011;-65
2021/05/31 00:03:31;;;;;;;;;;;;;;;;;;1478975;40;7004;-65
2021/05/31 00:04:33;;;;;;;;;;;;;;;;;;1479055;40;7891;-68
2021/05/31 00:05:36;;;;;;;;;;;;;;;;;;1478895;40;7911;-67
2021/05/31 00:06:55;;;;;;;;;;;;;;;;;;1479092;40;7982;-63
2021/05/31 00:07:58;;;;;;;;;;;;;;;;;;1478843;40;7048;-62
2021/05/31 00:09:00;;;;;;;;;;;;;;;;;;1478804;40;7003;-66
2021/05/31 00:10:04;;;;;;;;;;;;;;;;;;1482165;40;7074;-64
2021/05/31 00:11:07;;;;;;;;;;;;;;;;;;1482879;40;7052;-63
2021/05/31 00:12:14;;;;;;;;;;;;;;;;;;1482791;40;7938;-63
2021/05/31 00:13:17;;;;;;;;;;;;;;;;;;1483053;40;7000;-67
2021/05/31 00:14:20;;;;;;;;;;;;;;;;;;1483163;40;7012;-66
2021/05/31 00:15:23;;;;;;;;;;;;;;;;;;1482948;40;7003;-62
2021/05/31 00:16:25;;;;;;;;;;;;;;;;;;1482767;40;7016;-64
2021/05/31 00:17:28;;;;;;;;;;;;;;;;;;1481793;40;7122;-64
2021/05/31 00:18:30;;;;;;;;;;;;;;;;;;1482537;40;6999;-64
2021/05/31 00:19:33;;;;;;;;;;;;;;;;;;1479276;40;7030;-67
2021/05/31 00:20:36;;;;;;;;;;;;;;;;;;1478229;40;7118;-64
2021/05/31 00:21:39;;;;;;;;;;;;;;;;;;1480614;40;7003;-64
2021/05/31 00:22:41;;;;;;;;;;;;;;;;;;1480225;40;7019;-64
2021/05/31 00:23:44;;;;;;;;;;;;;;;;;;1479797;40;7000;-66
2021/05/31 00:24:48;;;;;;;;;;;;;;;;;;1478461;40;7258;-65
2021/05/31 00:25:50;;;;;;;;;;;;;;;;;;1480055;40;7000;-64
2021/05/31 00:26:53;;;;;;;;;;;;;;;;;;1482782;40;7007;-68
2021/05/31 00:27:55;;;;;;;;;;;;;;;;;;1482954;40;7007;-64
2021/05/31 00:28:58;;;;;;;;;;;;;;;;;;1479094;40;7031;-66
2021/05/31 00:30:00;;;;;;;;;;;;;;;;;;1480882;40;7019;-65
2021/05/31 00:31:03;;;;;;;;;;;;;;;;;;1479538;40;7003;-64
2021/05/31 00:32:06;;;;;;;;;;;;;;;;;;1478584;40;7008;-65
2021/05/31 00:33:08;;;;;;;;;;;;;;;;;;1478706;40;7003;-65
2021/05/31 00:34:10;;;;;;;;;;;;;;;;;;1478810;40;8044;-67
2021/05/31 00:35:14;;;;;;;;;;;;;;;;;;1479042;40;7904;-65
2021/05/31 00:36:17;;;;;;;;;;;;;;;;;;1477913;40;7914;-63
2021/05/31 00:37:19;;;;;;;;;;;;;;;;;;1478439;40;7877;-63
2021/05/31 00:38:22;;;;;;;;;;;;;;;;;;1478614;40;7051;-65
2021/05/31 00:39:24;;;;;;;;;;;;;;;;;;1478701;40;7000;-63
2021/05/31 00:40:27;;;;;;;;;;;;;;;;;;1478815;40;7035;-63
2021/05/31 00:41:30;;;;;;;;;;;;;;;;;;1478693;40;7918;-63
2021/05/31 00:42:32;;;;;;;;;;;;;;;;;;1478790;40;7007;-65
2021/05/31 00:43:35;;;;;;;;;;;;;;;;;;1479452;40;7035;-66
2021/05/31 00:44:37;;;;;;;;;;;;;;;;;;1478753;40;7023;-64
2021/05/31 00:45:40;;;;;;;;;;;;;;;;;;1478958;40;7011;-63
2021/05/31 00:46:42;;;;;;;;;;;;;;;;;;1478739;40;7011;-65
2021/05/31 00:47:45;;;;;;;;;;;;;;;;;;1478445;40;7004;-66
2021/05/31 00:48:48;;;;;;;;;;;;;;;;;;1478483;40;7007;-62
2021/05/31 00:49:51;;;;;;;;;;;;;;;;;;1478457;40;7865;-63
2021/05/31 00:50:54;;;;;;;;;;;;;;;;;;1479361;39;7120;-64
2021/05/31 00:51:57;;;;;;;;;;;;;;;;;;1478538;40;7031;-66
2021/05/31 00:53:00;;;;;;;;;;;;;;;;;;1478834;40;7875;-63
2021/05/31 00:54:03;;;;;;;;;;;;;;;;;;1478904;40;7108;-64
2021/05/31 00:55:06;;;;;;;;;;;;;;;;;;1478122;40;8062;-64
2021/05/31 00:56:09;;;;;;;;;;;;;;;;;;1478355;40;7087;-64
2021/05/31 00:57:11;;;;;;;;;;;;;;;;;;1478775;40;7963;-66
2021/05/31 00:58:14;;;;;;;;;;;;;;;;;;1478313;40;6999;-66
2021/05/31 00:59:16;;;;;;;;;;;;;;;;;;1478765;40;7010;-64
2021/05/31 01:00:19;;;;;;;;;;;;;;;;;;1478670;40;7039;-65
2021/05/31 01:01:22;;;;;;;;;;;;;;;;;;1478839;40;6999;-64
2021/05/31 01:02:25;;;;;;;;;;;;;;;;;;1478213;40;7007;-60
2021/05/31 01:03:27;;;;;;;;;;;;;;;;;;1478597;40;7175;-65
2021/05/31 01:04:30;;;;;;;;;;;;;;;;;;1478801;40;7015;-66
2021/05/31 01:05:35;;;;;;;;;;;;;;;;;;1478972;40;7031;-63
2021/05/31 01:06:42;;;;;;;;;;;;;;;;;;1481511;40;7040;-63
2021/05/31 01:07:50;;;;;;;;;;;;;;;;;;1482830;40;7111;-64
2021/05/31 01:08:58;;;;;;;;;;;;;;;;;;1482500;40;6995;-66
2021/05/31 01:10:10;;;;;;;;;;;;;;;;;;1483077;40;7031;-64
2021/05/31 01:11:13;;;;;;;;;;;;;;;;;;1482573;40;7007;-64
2021/05/31 01:12:26;;;;;;;;;;;;;;;;;;1482520;40;7919;-66
2021/05/31 01:13:39;;;;;;;;;;;;;;;;;;1482651;40;7134;-63
2021/05/31 01:14:50;;;;;;;;;;;;;;;;;;1483007;40;7052;-66
2021/05/31 01:16:06;;;;;;;;;;;;;;;;;;1482707;40;7008;-65
2021/05/31 01:17:11;;;;;;;;;;;;;;;;;;1478174;40;7055;-63
2021/05/31 01:18:23;;;;;;;;;;;;;;;;;;1482150;40;7939;-64
2021/05/31 01:19:41;;;;;;;;;;;;;;;;;;1479072;40;7646;-65
2021/05/31 01:21:03;;;;;;;;;;;;;;;;;;1477956;40;7035;-65
2021/05/31 01:22:09;;;;;;;;;;;;;;;;;;1481970;40;7015;-65
2021/05/31 01:23:13;;;;;;;;;;;;;;;;;;1479630;40;7114;-65
2021/05/31 01:24:34;;;;;;;;;;;;;;;;;;1478505;40;7885;-65
2021/05/31 01:25:46;;;;;;;;;;;;;;;;;;1479722;40;7003;-63
2021/05/31 01:27:00;;;;;;;;;;;;;;;;;;1482131;40;7031;-62
2021/05/31 01:28:11;;;;;;;;;;;;;;;;;;1482106;40;7011;-65
2021/05/31 01:29:13;;;;;;;;;;;;;;;;;;1478014;40;7137;-66
2021/05/31 01:30:21;;;;;;;;;;;;;;;;;;1478530;40;7024;-65
2021/05/31 01:31:28;;;;;;;;;;;;;;;;;;1478053;40;7003;-65
2021/05/31 01:32:34;;;;;;;;;;;;;;;;;;1479825;40;7824;-64
2021/05/31 01:33:37;;;;;;;;;;;;;;;;;;1482377;40;7011;-66
2021/05/31 01:34:42;;;;;;;;;;;;;;;;;;1482564;40;7921;-65
2021/05/31 01:35:45;;;;;;;;;;;;;;;;;;1481844;40;7016;-62
2021/05/31 01:36:52;;;;;;;;;;;;;;;;;;1481818;39;7112;-68
2021/05/31 01:37:57;;;;;;;;;;;;;;;;;;1478216;40;7059;-63
2021/05/31 01:39:01;;;;;;;;;;;;;;;;;;1479094;40;7003;-66
2021/05/31 01:40:06;;;;;;;;;;;;;;;;;;1478708;40;7034;-64
2021/05/31 01:41:10;;;;;;;;;;;;;;;;;;1478575;40;7006;-64
2021/05/31 01:42:13;;;;;;;;;;;;;;;;;;1478931;40;7039;-66
2021/05/31 01:43:16;;;;;;;;;;;;;;;;;;1478990;40;7147;-66
2021/05/31 01:44:19;;;;;;;;;;;;;;;;;;1478762;40;7182;-63
2021/05/31 01:45:22;;;;;;;;;;;;;;;;;;1479269;39;7105;-64
2021/05/31 01:46:24;;;;;;;;;;;;;;;;;;1478430;40;7035;-65
2021/05/31 01:47:28;;;;;;;;;;;;;;;;;;1478358;40;7071;-63
2021/05/31 01:48:31;;;;;;;;;;;;;;;;;;1478582;40;7265;-63
2021/05/31 01:49:35;;;;;;;;;;;;;;;;;;1479344;40;7147;-66
2021/05/31 01:50:39;;;;;;;;;;;;;;;;;;1479083;40;7965;-66
2021/05/31 01:51:43;;;;;;;;;;;;;;;;;;1479426;40;7121;-63
2021/05/31 01:52:46;;;;;;;;;;;;;;;;;;1478999;40;7047;-64
2021/05/31 01:53:50;;;;;;;;;;;;;;;;;;1479136;40;7035;-63
2021/05/31 01:54:55;;;;;;;;;;;;;;;;;;1479723;39;7125;-64
2021/05/31 01:55:58;;;;;;;;;;;;;;;;;;1479355;40;7110;-64
2021/05/31 01:57:01;;;;;;;;;;;;;;;;;;1479568;40;7103;-65
2021/05/31 01:58:05;;;;;;;;;;;;;;;;;;1479421;40;7961;-65
2021/05/31 01:59:08;;;;;;;;;;;;;;;;;;1479296;40;6999;-67
2021/05/31 02:00:11;;;;;;;;;;;;;;;;;;1478918;40;7040;-64
2021/05/31 02:01:24;;;;;;;;;;;;;;;;;;1479263;40;7003;-65
2021/05/31 02:02:27;;;;;;;;;;;;;;;;;;1479219;40;7120;-65
2021/05/31 02:03:29;;;;;;;;;;;;;;;;;;1478947;40;7000;-64
2021/05/31 02:04:31;;;;;;;;;;;;;;;;;;1479009;40;7066;-62
2021/05/31 02:05:34;;;;;;;;;;;;;;;;;;1479392;40;7035;-63
2021/05/31 02:06:36;;;;;;;;;;;;;;;;;;1479239;40;7031;-66
2021/05/31 02:07:39;;;;;;;;;;;;;;;;;;1483127;40;7131;-63
2021/05/31 02:08:41;;;;;;;;;;;;;;;;;;1483014;40;7039;-65
2021/05/31 02:09:45;;;;;;;;;;;;;;;;;;1483210;40;7008;-65
2021/05/31 02:10:47;;;;;;;;;;;;;;;;;;1482998;40;7003;-63
2021/05/31 02:12:10;;;;;;;;;;;;;;;;;;1483303;40;7219;-63
2021/05/31 02:13:15;;;;;;;;;;;;;;;;;;1483539;40;7255;-65
2021/05/31 02:14:25;;;;;;;;;;;;;;;;;;1483490;40;6999;-66
2021/05/31 02:15:46;;;;;;;;;;;;;;;;;;1479057;40;8670;-64
2021/05/31 02:17:03;;;;;;;;;;;;;;;;;;1479178;40;7020;-64
2021/05/31 02:18:24;;;;;;;;;;;;;;;;;;1478507;40;7908;-63
2021/05/31 02:19:28;;;;;;;;;;;;;;;;;;1481035;40;7262;-65
2021/05/31 02:20:31;;;;;;;;;;;;;;;;;;1483012;40;7007;-63
2021/05/31 02:21:35;;;;;;;;;;;;;;;;;;1480962;40;7039;-67
2021/05/31 02:22:39;;;;;;;;;;;;;;;;;;1478906;40;7075;-66
2021/05/31 02:23:42;;;;;;;;;;;;;;;;;;1478842;40;7277;-62
2021/05/31 02:24:45;;;;;;;;;;;;;;;;;;1478849;40;7016;-64
2021/05/31 02:25:51;;;;;;;;;;;;;;;;;;1481294;40;7114;-65
2021/05/31 02:26:54;;;;;;;;;;;;;;;;;;1478601;40;7039;-64
2021/05/31 02:27:58;;;;;;;;;;;;;;;;;;1478603;40;7052;-63
2021/05/31 02:29:01;;;;;;;;;;;;;;;;;;1478882;40;7032;-63
2021/05/31 02:30:04;;;;;;;;;;;;;;;;;;1482206;40;7012;-63
2021/05/31 02:31:08;;;;;;;;;;;;;;;;;;1482813;40;7035;-65
2021/05/31 02:32:10;;;;;;;;;;;;;;;;;;1482197;40;7003;-64
2021/05/31 02:33:13;;;;;;;;;;;;;;;;;;1478765;40;7225;-64
2021/05/31 02:34:16;;;;;;;;;;;;;;;;;;1478893;40;7898;-65
2021/05/31 02:35:20;;;;;;;;;;;;;;;;;;1479219;40;7031;-66
2021/05/31 02:36:24;;;;;;;;;;;;;;;;;;1478567;40;7031;-65
2021/05/31 02:37:44;;;;;;;;;;;;;;;;;;1478661;40;7008;-67
2021/05/31 02:38:47;;;;;;;;;;;;;;;;;;1479382;40;7108;-65
2021/05/31 02:39:49;;;;;;;;;;;;;;;;;;1478844;40;7060;-63
2021/05/31 02:40:51;;;;;;;;;;;;;;;;;;1479107;40;7104;-65
2021/05/31 02:41:54;;;;;;;;;;;;;;;;;;1479281;40;7003;-65
2021/05/31 02:43:01;;;;;;;;;;;;;;;;;;1479317;40;7207;-64
2021/05/31 02:44:03;;;;;;;;;;;;;;;;;;1478906;40;7152;-65
2021/05/31 02:45:07;;;;;;;;;;;;;;;;;;1479005;40;7206;-63
2021/05/31 02:46:09;;;;;;;;;;;;;;;;;;1479141;40;7004;-63
2021/05/31 02:47:11;;;;;;;;;;;;;;;;;;1479259;40;7035;-64
2021/05/31 02:48:17;;;;;;;;;;;;;;;;;;1479149;40;7009;-63
2021/05/31 02:49:20;;;;;;;;;;;;;;;;;;1478693;40;8057;-65
2021/05/31 02:50:23;;;;;;;;;;;;;;;;;;1479316;40;7063;-66
2021/05/31 02:51:25;;;;;;;;;;;;;;;;;;1479144;40;7051;-64
2021/05/31 02:52:27;;;;;;;;;;;;;;;;;;1478848;40;7008;-63
2021/05/31 02:53:31;;;;;;;;;;;;;;;;;;1478751;40;7007;-64
2021/05/31 02:54:34;;;;;;;;;;;;;;;;;;1479114;40;7031;-65
2021/05/31 02:55:37;;;;;;;;;;;;;;;;;;1479111;40;7118;-63
2021/05/31 02:56:39;;;;;;;;;;;;;;;;;;1478853;40;7016;-63
2021/05/31 02:57:42;;;;;;;;;;;;;;;;;;1479414;40;7473;-65
2021/05/31 02:58:45;;;;;;;;;;;;;;;;;;1479510;40;7059;-63
2021/05/31 02:59:47;;;;;;;;;;;;;;;;;;1478903;40;7901;-67
2021/05/31 03:00:50;;;;;;;;;;;;;;;;;;1478432;40;7016;-62
2021/05/31 03:01:52;;;;;;;;;;;;;;;;;;1478759;40;7062;-65
2021/05/31 03:02:55;;;;;;;;;;;;;;;;;;1478922;40;7008;-64
2021/05/31 03:03:58;;;;;;;;;;;;;;;;;;1479515;40;7125;-63
2021/05/31 03:05:00;;;;;;;;;;;;;;;;;;1479176;40;7153;-64
2021/05/31 03:06:03;;;;;;;;;;;;;;;;;;1479033;40;7121;-65
2021/05/31 03:07:05;;;;;;;;;;;;;;;;;;1478738;40;7935;-66
2021/05/31 03:08:07;;;;;;;;;;;;;;;;;;1479419;40;8061;-63
2021/05/31 03:09:10;;;;;;;;;;;;;;;;;;1483097;40;7035;-63
2021/05/31 03:10:13;;;;;;;;;;;;;;;;;;1483179;40;7054;-66
2021/05/31 03:11:16;;;;;;;;;;;;;;;;;;1483075;40;7942;-65
2021/05/31 03:12:19;;;;;;;;;;;;;;;;;;1483347;40;7012;-65
2021/05/31 03:13:21;;;;;;;;;;;;;;;;;;1479007;40;7052;-65
2021/05/31 03:14:23;;;;;;;;;;;;;;;;;;1479380;40;7009;-61
2021/05/31 03:15:26;;;;;;;;;;;;;;;;;;1479129;40;7104;-62
2021/05/31 03:16:28;;;;;;;;;;;;;;;;;;1479017;40;7231;-64
2021/05/31 03:17:31;;;;;;;;;;;;;;;;;;1478725;40;7035;-63
2021/05/31 03:18:33;;;;;;;;;;;;;;;;;;1479341;40;7047;-64
2021/05/31 03:19:36;;;;;;;;;;;;;;;;;;1478950;40;7223;-66
2021/05/31 03:20:38;;;;;;;;;;;;;;;;;;1478413;40;7210;-65
2021/05/31 03:21:41;;;;;;;;;;;;;;;;;;1480689;40;7007;-65
2021/05/31 03:22:43;;;;;;;;;;;;;;;;;;1481843;40;7007;-62
2021/05/31 03:23:46;;;;;;;;;;;;;;;;;;1482023;40;7007;-66
2021/05/31 03:24:48;;;;;;;;;;;;;;;;;;1483705;40;7016;-65
2021/05/31 03:25:51;;;;;;;;;;;;;;;;;;1480212;40;7058;-63
2021/05/31 03:26:53;;;;;;;;;;;;;;;;;;1478687;40;7007;-62
2021/05/31 03:27:58;;;;;;;;;;;;;;;;;;1478634;40;7107;-62
2021/05/31 03:29:00;;;;;;;;;;;;;;;;;;1478977;40;7075;-63
2021/05/31 03:30:04;;;;;;;;;;;;;;;;;;1478615;40;7004;-65
2021/05/31 03:31:06;;;;;;;;;;;;;;;;;;1478837;40;7043;-65
2021/05/31 03:32:09;;;;;;;;;;;;;;;;;;1478969;40;7918;-63
2021/05/31 03:33:11;;;;;;;;;;;;;;;;;;1480266;40;7012;-65
2021/05/31 03:34:14;;;;;;;;;;;;;;;;;;1482962;40;7928;-64
2021/05/31 03:35:17;;;;;;;;;;;;;;;;;;1483427;40;7051;-65
2021/05/31 03:36:19;;;;;;;;;;;;;;;;;;1482525;40;7031;-65
2021/05/31 03:37:22;;;;;;;;;;;;;;;;;;1482621;40;7047;-63
2021/05/31 03:38:24;;;;;;;;;;;;;;;;;;1482188;40;7040;-64
2021/05/31 03:39:26;;;;;;;;;;;;;;;;;;1478854;40;7048;-66
2021/05/31 03:40:29;;;;;;;;;;;;;;;;;;1479081;40;7007;-64
2021/05/31 03:41:31;;;;;;;;;;;;;;;;;;1479034;40;7008;-64
2021/05/31 03:42:34;;;;;;;;;;;;;;;;;;1479161;40;7035;-63
2021/05/31 03:43:36;;;;;;;;;;;;;;;;;;1479210;40;7190;-63
2021/05/31 03:44:39;;;;;;;;;;;;;;;;;;1478858;40;6999;-65
2021/05/31 03:45:41;;;;;;;;;;;;;;;;;;1478940;40;7040;-65
2021/05/31 03:46:44;;;;;;;;;;;;;;;;;;1479155;40;7027;-63
2021/05/31 03:47:47;;;;;;;;;;;;;;;;;;1479092;40;7003;-64
2021/05/31 03:48:52;;;;;;;;;;;;;;;;;;1483243;40;7043;-64
2021/05/31 03:49:54;;;;;;;;;;;;;;;;;;1482139;40;7109;-63
2021/05/31 03:51:10;;;;;;;;;;;;;;;;;;1483359;40;7003;-65
2021/05/31 03:52:12;;;;;;;;;;;;;;;;;;1483146;40;7003;-68
2021/05/31 03:53:14;;;;;;;;;;;;;;;;;;1483168;40;7051;-65
2021/05/31 03:54:17;;;;;;;;;;;;;;;;;;1483368;40;7003;-63
2021/05/31 03:55:19;;;;;;;;;;;;;;;;;;1482894;40;7003;-66
2021/05/31 03:56:22;;;;;;;;;;;;;;;;;;1482922;40;7016;-66
2021/05/31 03:57:24;;;;;;;;;;;;;;;;;;1482926;40;7055;-65
2021/05/31 03:58:27;;;;;;;;;;;;;;;;;;1483096;40;7004;-67
2021/05/31 03:59:30;;;;;;;;;;;;;;;;;;1483170;40;6999;-65
2021/05/31 04:00:32;;;;;;;;;;;;;;;;;;1483587;40;7031;-65
2021/05/31 04:01:34;;;;;;;;;;;;;;;;;;1482940;40;7020;-64
2021/05/31 04:02:40;;;;;;;;;;;;;;;;;;1480745;40;7003;-63
2021/05/31 04:03:43;;;;;;;;;;;;;;;;;;1478788;40;7015;-64
2021/05/31 04:04:49;;;;;;;;;;;;;;;;;;1478750;40;7186;-63
2021/05/31 04:06:02;;;;;;;;;;;;;;;;;;1478948;40;7138;-64
2021/05/31 04:12:28;;;;;;;;;;;;;;;;;;1478721;40;7000;-64
2021/05/31 04:13:31;;;;;;;;;;;;;;;;;;1478781;40;7028;-63
2021/05/31 04:14:33;;;;;;;;;;;;;;;;;;1478713;40;7055;-65
2021/05/31 04:15:36;;;;;;;;;;;;;;;;;;1478670;40;7008;-63
2021/05/31 04:16:43;;;;;;;;;;;;;;;;;;1478775;40;7038;-63
2021/05/31 04:17:45;;;;;;;;;;;;;;;;;;1478660;40;7000;-64
2021/05/31 04:18:49;;;;;;;;;;;;;;;;;;1478197;40;7007;-63
2021/05/31 04:19:51;;;;;;;;;;;;;;;;;;1482483;40;7003;-63
2021/05/31 04:20:54;;;;;;;;;;;;;;;;;;1481016;40;7521;-65
2021/05/31 04:21:56;;;;;;;;;;;;;;;;;;1482113;40;7110;-62
2021/05/31 04:22:59;;;;;;;;;;;;;;;;;;1478877;40;7934;-66
2021/05/31 04:24:02;;;;;;;;;;;;;;;;;;1478353;40;7007;-66
2021/05/31 04:25:05;;;;;;;;;;;;;;;;;;1478373;40;7934;-64
2021/05/31 04:26:07;;;;;;;;;;;;;;;;;;1478361;40;7003;-63
2021/05/31 04:27:10;;;;;;;;;;;;;;;;;;1483485;40;6999;-64
2021/05/31 04:28:12;;;;;;;;;;;;;;;;;;1485944;40;6999;-66
2021/05/31 04:29:15;;;;;;;;;;;;;;;;;;1482742;40;7003;-63
2021/05/31 04:30:18;;;;;;;;;;;;;;;;;;1478612;40;7044;-64
2021/05/31 04:31:20;;;;;;;;;;;;;;;;;;1480345;40;7206;-66
2021/05/31 04:32:23;;;;;;;;;;;;;;;;;;1478233;40;7128;-65
2021/05/31 04:33:25;;;;;;;;;;;;;;;;;;1478500;40;7007;-66
2021/05/31 04:34:27;;;;;;;;;;;;;;;;;;1478626;40;7035;-65
2021/05/31 04:35:30;;;;;;;;;;;;;;;;;;1478689;40;7031;-65
2021/05/31 04:36:33;;;;;;;;;;;;;;;;;;1478088;40;7048;-67
2021/05/31 04:37:36;;;;;;;;;;;;;;;;;;1478421;40;7075;-65
2021/05/31 04:38:38;;;;;;;;;;;;;;;;;;1478693;40;8044;-63
2021/05/31 04:39:41;;;;;;;;;;;;;;;;;;1478522;40;7040;-64
2021/05/31 04:40:43;;;;;;;;;;;;;;;;;;1478546;40;7008;-63
2021/05/31 04:41:45;;;;;;;;;;;;;;;;;;1478467;40;7164;-62
2021/05/31 04:42:48;;;;;;;;;;;;;;;;;;1478888;40;7837;-67
2021/05/31 04:43:51;;;;;;;;;;;;;;;;;;1478999;40;7006;-64
2021/05/31 04:44:53;;;;;;;;;;;;;;;;;;1479074;40;7031;-63
2021/05/31 04:45:56;;;;;;;;;;;;;;;;;;1479435;40;8660;-66
2021/05/31 04:46:58;;;;;;;;;;;;;;;;;;1478576;40;7003;-64
2021/05/31 04:48:01;;;;;;;;;;;;;;;;;;1478568;40;7203;-63
2021/05/31 04:49:04;;;;;;;;;;;;;;;;;;1478696;40;7003;-63
2021/05/31 04:50:06;;;;;;;;;;;;;;;;;;1478873;40;7966;-65
2021/05/31 04:51:09;;;;;;;;;;;;;;;;;;1478363;40;7035;-64
2021/05/31 04:52:11;;;;;;;;;;;;;;;;;;1479152;40;7042;-64
2021/05/31 04:53:14;;;;;;;;;;;;;;;;;;1478432;40;7833;-63
2021/05/31 04:54:16;;;;;;;;;;;;;;;;;;1478405;40;7162;-63
2021/05/31 04:55:19;;;;;;;;;;;;;;;;;;1478452;40;7030;-65
2021/05/31 04:56:22;;;;;;;;;;;;;;;;;;1478854;40;7004;-65
2021/05/31 04:57:24;;;;;;;;;;;;;;;;;;1478307;40;7004;-65
2021/05/31 04:58:26;;;;;;;;;;;;;;;;;;1478899;40;7043;-62
2021/05/31 04:59:29;;;;;;;;;;;;;;;;;;1478688;40;7031;-63
2021/05/31 05:00:32;;;;;;;;;;;;;;;;;;1478487;40;7004;-63
2021/05/31 05:01:34;;;;;;;;;;;;;;;;;;1478721;40;7044;-63
2021/05/31 05:02:37;;;;;;;;;;;;;;;;;;1478531;40;7597;-64
2021/05/31 05:03:39;;;;;;;;;;;;;;;;;;1479067;40;7035;-65
2021/05/31 05:04:46;;;;;;;;;;;;;;;;;;1478370;40;6996;-63
2021/05/31 05:05:49;;;;;;;;;;;;;;;;;;1478706;40;7061;-64
2021/05/31 05:06:51;;;;;;;;;;;;;;;;;;1478928;40;7000;-66
2021/05/31 05:07:53;;;;;;;;;;;;;;;;;;1478740;40;7808;-64
2021/05/31 05:08:56;;;;;;;;;;;;;;;;;;1478487;40;7107;-63
2021/05/31 05:09:58;;;;;;;;;;;;;;;;;;1478372;40;7000;-62
2021/05/31 05:11:01;;;;;;;;;;;;;;;;;;1477951;40;8310;-62
2021/05/31 05:12:03;;;;;;;;;;;;;;;;;;1478608;40;7282;-64
2021/05/31 05:13:06;;;;;;;;;;;;;;;;;;1478706;40;7186;-63
2021/05/31 05:14:09;;;;;;;;;;;;;;;;;;1478219;40;7208;-65
2021/05/31 05:15:12;;;;;;;;;;;;;;;;;;1478552;40;7189;-62
2021/05/31 05:16:14;;;;;;;;;;;;;;;;;;1478350;40;6992;-63
2021/05/31 05:17:17;;;;;;;;;;;;;;;;;;1478727;40;7450;-65
2021/05/31 05:18:19;;;;;;;;;;;;;;;;;;1478354;40;7032;-66
2021/05/31 05:19:22;;;;;;;;;;;;;;;;;;1478465;40;7087;-64
2021/05/31 05:20:26;;;;;;;;;;;;;;;;;;1478568;40;7031;-64
2021/05/31 05:21:28;;;;;;;;;;;;;;;;;;1479240;40;7011;-65
2021/05/31 05:22:31;;;;;;;;;;;;;;;;;;1478718;40;7007;-64
2021/05/31 05:23:33;;;;;;;;;;;;;;;;;;1478852;40;7050;-64
2021/05/31 05:24:36;;;;;;;;;;;;;;;;;;1478752;40;7004;-64
2021/05/31 05:25:39;;;;;;;;;;;;;;;;;;1478774;40;7908;-64
2021/05/31 05:26:41;;;;;;;;;;;;;;;;;;1478968;40;8265;-65
2021/05/31 05:27:45;;;;;;;;;;;;;;;;;;1478986;40;7236;-64
2021/05/31 05:28:48;;;;;;;;;;;;;;;;;;1479110;40;7910;-63
2021/05/31 05:29:51;;;;;;;;;;;;;;;;;;1479345;40;7040;-69
2021/05/31 05:30:53;;;;;;;;;;;;;;;;;;1479321;40;7953;-63
2021/05/31 05:31:56;;;;;;;;;;;;;;;;;;1478982;40;7031;-64
2021/05/31 05:33:00;;;;;;;;;;;;;;;;;;1479090;40;6996;-65
2021/05/31 05:34:05;;;;;;;;;;;;;;;;;;1479128;40;7051;-63
2021/05/31 05:35:24;;;;;;;;;;;;;;;;;;1479252;40;7052;-63
2021/05/31 05:36:33;;;;;;;;;;;;;;;;;;1479228;40;7031;-65
2021/05/31 05:37:42;;;;;;;;;;;;;;;;;;1478688;40;7118;-64
2021/05/31 05:40:42;;;;;;;;;;;;;;;;;;1480946;40;8784;-65
2021/05/31 05:48:17;;;;;;;;;;;;;;;;;;1479107;40;7139;-64
2021/05/31 05:49:20;;;;;;;;;;;;;;;;;;1479242;40;7035;-64
2021/05/31 05:50:22;;;;;;;;;;;;;;;;;;1479024;40;7051;-64
2021/05/31 05:51:25;;;;;;;;;;;;;;;;;;1479062;40;7054;-66
2021/05/31 05:52:27;;;;;;;;;;;;;;;;;;1479112;40;7048;-63
2021/05/31 05:53:29;;;;;;;;;;;;;;;;;;1479448;40;7031;-64
2021/05/31 05:54:32;;;;;;;;;;;;;;;;;;1478572;40;7029;-65
2021/05/31 05:55:34;;;;;;;;;;;;;;;;;;1479323;40;7008;-63
2021/05/31 05:56:36;;;;;;;;;;;;;;;;;;1479114;40;7000;-64
2021/05/31 05:57:40;;;;;;;;;;;;;;;;;;1479001;40;7011;-65
2021/05/31 05:58:44;;;;;;;;;;;;;;;;;;1479132;40;7183;-65
2021/05/31 05:59:46;;;;;;;;;;;;;;;;;;1479232;40;7007;-63
2021/05/31 06:00:49;;;;;;;;;;;;;;;;;;1479367;40;7168;-66
2021/05/31 06:01:51;;;;;;;;;;;;;;;;;;1479315;40;7004;-64
2021/05/31 06:02:54;;;;;;;;;;;;;;;;;;1479325;40;7023;-62
2021/05/31 06:03:57;;;;;;;;;;;;;;;;;;1479077;40;7898;-65
2021/05/31 06:05:00;;;;;;;;;;;;;;;;;;1479100;40;7900;-66
2021/05/31 06:06:04;;;;;;;;;;;;;;;;;;1478902;40;7039;-65
2021/05/31 06:07:08;;;;;;;;;;;;;;;;;;1479057;40;7043;-65
2021/05/31 06:08:10;;;;;;;;;;;;;;;;;;1478851;40;7974;-62
2021/05/31 06:09:15;;;;;;;;;;;;;;;;;;1478825;40;7117;-63
2021/05/31 06:10:18;;;;;;;;;;;;;;;;;;1479122;40;7117;-62
2021/05/31 06:11:21;;;;;;;;;;;;;;;;;;1479011;40;7007;-65
2021/05/31 06:12:24;;;;;;;;;;;;;;;;;;1478755;40;8827;-65
2021/05/31 06:13:26;;;;;;;;;;;;;;;;;;1479023;40;7047;-65
2021/05/31 06:14:28;;;;;;;;;;;;;;;;;;1480418;40;7884;-65
2021/05/31 06:15:31;;;;;;;;;;;;;;;;;;1478897;40;7008;-63
2021/05/31 06:16:33;;;;;;;;;;;;;;;;;;1478838;40;6999;-63
2021/05/31 06:17:37;;;;;;;;;;;;;;;;;;1479235;40;7004;-67
2021/05/31 06:18:40;;;;;;;;;;;;;;;;;;1478967;40;7003;-63
2021/05/31 06:19:43;;;;;;;;;;;;;;;;;;1480024;40;7007;-64
2021/05/31 06:20:45;;;;;;;;;;;;;;;;;;1479051;40;7059;-64
2021/05/31 06:21:48;;;;;;;;;;;;;;;;;;1479052;40;7236;-63
2021/05/31 06:22:51;;;;;;;;;;;;;;;;;;1477931;40;7070;-65
2021/05/31 06:23:54;;;;;;;;;;;;;;;;;;1478729;40;7007;-66
2021/05/31 06:24:56;;;;;;;;;;;;;;;;;;1478788;40;7043;-64
2021/05/31 06:25:59;;;;;;;;;;;;;;;;;;1477682;39;7132;-62
2021/05/31 06:27:01;;;;;;;;;;;;;;;;;;1478087;40;7901;-65
2021/05/31 06:28:06;;;;;;;;;;;;;;;;;;1478529;40;7111;-65
2021/05/31 06:29:08;;;;;;;;;;;;;;;;;;1479493;40;7056;-63
2021/05/31 06:30:12;;;;;;;;;;;;;;;;;;1479011;40;7918;-65
2021/05/31 06:31:14;;;;;;;;;;;;;;;;;;1478998;40;7004;-65
2021/05/31 06:32:17;;;;;;;;;;;;;;;;;;1478955;39;7119;-62
2021/05/31 06:33:20;;;;;;;;;;;;;;;;;;1478705;40;7268;-65
2021/05/31 06:34:23;;;;;;;;;;;;;;;;;;1478571;40;8790;-66
2021/05/31 06:35:25;;;;;;;;;;;;;;;;;;1479080;40;7983;-66
2021/05/31 06:36:30;;;;;;;;;;;;;;;;;;1478661;40;7012;-64
2021/05/31 06:37:38;;;;;;;;;;;;;;;;;;1479077;40;7247;-61
2021/05/31 06:38:40;;;;;;;;;;;;;;;;;;1479134;40;7162;-65
2021/05/31 06:39:42;;;;;;;;;;;;;;;;;;1478835;40;7031;-65
2021/05/31 06:40:45;;;;;;;;;;;;;;;;;;1479102;40;7004;-66
2021/05/31 06:41:48;;;;;;;;;;;;;;;;;;1479072;40;7187;-65
2021/05/31 06:42:52;;;;;;;;;;;;;;;;;;1479393;40;7007;-64
2021/05/31 06:43:55;;;;;;;;;;;;;;;;;;1478764;40;7000;-66
2021/05/31 06:44:57;;;;;;;;;;;;;;;;;;1479234;40;8089;-64
2021/05/31 06:46:00;;;;;;;;;;;;;;;;;;1478569;40;7000;-65
2021/05/31 06:47:03;;;;;;;;;;;;;;;;;;1478755;40;7036;-65
2021/05/31 06:48:06;;;;;;;;;;;;;;;;;;1478530;40;7007;-62
2021/05/31 06:49:08;;;;;;;;;;;;;;;;;;1478891;40;7931;-63
2021/05/31 06:50:11;;;;;;;;;;;;;;;;;;1479399;40;7619;-63
2021/05/31 06:51:14;;;;;;;;;;;;;;;;;;1478894;40;7003;-64
2021/05/31 06:52:16;;;;;;;;;;;;;;;;;;1479084;40;7035;-64
2021/05/31 06:53:20;;;;;;;;;;;;;;;;;;1478900;40;7027;-63
2021/05/31 06:54:23;;;;;;;;;;;;;;;;;;1479080;40;7076;-63
2021/05/31 06:55:26;;;;;;;;;;;;;;;;;;1482563;40;7024;-64
2021/05/31 06:56:28;;;;;;;;;;;;;;;;;;1482522;40;7012;-66
2021/05/31 06:57:30;;;;;;;;;;;;;;;;;;1483470;40;7003;-65
2021/05/31 06:58:33;;;;;;;;;;;;;;;;;;1483409;40;7827;-65
2021/05/31 06:59:35;;;;;;;;;;;;;;;;;;1483514;40;7047;-65
2021/05/31 07:00:38;;;;;;;;;;;;;;;;;;1483099;40;7853;-64
2021/05/31 07:01:41;;;;;;;;;;;;;;;;;;1483193;40;7227;-66
2021/05/31 07:02:44;;;;;;;;;;;;;;;;;;1480086;40;7840;-65
2021/05/31 07:03:46;;;;;;;;;;;;;;;;;;1478894;40;7031;-63
2021/05/31 07:04:51;;;;;;;;;;;;;;;;;;1478961;40;7012;-65
2021/05/31 07:05:53;;;;;;;;;;;;;;;;;;1479347;40;7035;-67
2021/05/31 07:06:55;;;;;;;;;;;;;;;;;;1482245;40;7855;-63
2021/05/31 07:07:59;;;;;;;;;;;;;;;;;;1482752;40;7003;-63
2021/05/31 07:09:02;;;;;;;;;;;;;;;;;;1483082;40;7003;-63
2021/05/31 07:10:06;;;;;;;;;;;;;;;;;;1482976;40;7039;-64
2021/05/31 07:11:14;;;;;;;;;;;;;;;;;;1483115;40;7924;-64
2021/05/31 07:12:16;;;;;;;;;;;;;;;;;;1482022;40;7950;-64
2021/05/31 07:13:20;;;;;;;;;;;;;;;;;;1478822;40;7301;-66
2021/05/31 07:14:32;;;;;;;;;;;;;;;;;;1478761;40;7027;-64
2021/05/31 07:15:34;;;;;;;;;;;;;;;;;;1478895;40;6999;-66
2021/05/31 07:16:39;;;;;;;;;;;;;;;;;;1479186;40;7167;-64
2021/05/31 07:17:42;;;;;;;;;;;;;;;;;;1478726;40;6999;-62
2021/05/31 07:18:45;;;;;;;;;;;;;;;;;;1478383;40;7008;-63
2021/05/31 07:19:48;;;;;;;;;;;;;;;;;;1482824;40;7003;-62
2021/05/31 07:20:53;;;;;;;;;;;;;;;;;;1479587;40;7103;-63
2021/05/31 07:21:55;;;;;;;;;;;;;;;;;;1477991;40;7008;-63
2021/05/31 07:22:58;;;;;;;;;;;;;;;;;;1480837;40;7020;-66
2021/05/31 07:24:00;;;;;;;;;;;;;;;;;;1479243;40;7019;-66
2021/05/31 07:25:04;;;;;;;;;;;;;;;;;;1482361;40;7016;-64
2021/05/31 07:26:08;;;;;;;;;;;;;;;;;;1482336;40;7047;-65
2021/05/31 07:27:10;;;;;;;;;;;;;;;;;;1482462;40;7015;-64
2021/05/31 07:28:14;;;;;;;;;;;;;;;;;;1478182;40;7868;-66
2021/05/31 07:29:16;;;;;;;;;;;;;;;;;;1478334;40;6993;-63
2021/05/31 07:30:19;;;;;;;;;;;;;;;;;;1479523;40;7009;-63
2021/05/31 07:31:22;;;;;;;;;;;;;;;;;;1482981;40;7035;-65
2021/05/31 07:32:25;;;;;;;;;;;;;;;;;;1478090;40;7003;-65
2021/05/31 07:33:27;;;;;;;;;;;;;;;;;;1478747;40;7004;-64
2021/05/31 07:34:29;;;;;;;;;;;;;;;;;;1478743;40;7285;-64
2021/05/31 07:35:32;;;;;;;;;;;;;;;;;;1478256;40;9199;-65
2021/05/31 07:36:34;;;;;;;;;;;;;;;;;;1478016;40;7193;-64